Portada
METAR-TAF:

METAR-TAF

Aeroports :

Moose Lake, Minnesota, Estats Units d'Amèrica

Moose Lake Carlton County Airport

latitud: 46-25N, longitud: 092-48W, altitud: 328 m

Observació

L'informe es va fer fa 15 hores i 39 minuts, a les 15:15 UTC
Vent 5 kt del Nord
Temperatura -12°C
Humitat 85%
Pressió 1011 hPa
Visibilitat: 4.8 km
Cel cobert a una alçada de 1400 ft
neu

METAR: KMZH 201515Z AUTO 35005KT 3SM -SN OVC014 M12/M14 A2985 RMK AO2

Hora: 00:54 (06:54 UTC)


TAF: manca

Observacions i pronòstics meteorològics de més de 4000 aeroports (METAR i TAF).

Les estacions disponibles són els punts grocs i vermells al mapa.

Posi el ratolí al punt desitjat per veure el nom de l'estació.

Feu clic per veure les observacions i els pronòstics meteorològics.

Per canviar el mapa: feu clic els botons verds amb una creu de color negre per apropar; al botó verd amb un guió per allunyar la imatge; o en les fletxes verdes per a mapes adjacents.


METAR-TAF: